Flag Island, MN

6:11 AM CDT on September 21, 2017 (GMT -0500)
Flag Island

Weather History for KFGN - June, 2013

Change the Weather History Date:

Sunday, June 16, 2013

  Actual Average Record
Temperature  
Mean Temperature 66 °F -  
Max Temperature 73 °F 64 °F 77 °F (2003)
Min Temperature 59 °F 52 °F 39 °F (2000)
Cooling Degree Days 1    
Growing Degree Days 16 (Base 50)    
Moisture  
Dew Point 52 °F    
Average Humidity 62    
Maximum Humidity 82    
Minimum Humidity 38    
Precipitation  
Precipitation 0.00 in - - ()
Sea Level Pressure  
Sea Level Pressure 29.77 in    
Wind  
Wind Speed 10 mph (West)    
Max Wind Speed 21 mph    
Max Gust Speed 25 mph    
Visibility 9 miles    
Events      
Averages and records for this station are not official NWS values.
T = Trace of Precipitation, MM = Missing Value Source: NWS Daily Summary

Daily Weather History Graph

Daily Weather History Graph

Search for Another Location

Airport or City:

Trip Planner

Search our weather history database for the weather conditions in past years. The results will help you decide how hot, cold, wet, or windy it might be!

Date:

Astronomy

Jun. 16, 2013 Rise Set
Actual Time 5:13 AM CDT 9:27 PM CDT
Civil Twilight 4:29 AM CDT 10:11 PM CDT
Nautical Twilight 3:27 AM CDT 11:13 PM CDT
Astronomical Twilight 1:52 AM CDT 12:48 AM CDT
Moon 1:30 PM CDT (6/16) 12:56 AM CDT (6/16)
Length of Visible Light 17h 41m
Length of Day
16h 14m
Waxing Crescent, 50% of the Moon is Illuminated
Jun 16
Waxing Crescent
Jun 16
First Quarter
Jun 23
Full
Jun 29
Last Quarter
Jul 8
New

Hourly Weather History & Observations

Time (CDT) Temp. Dew Point Humidity Pressure Visibility Wind Dir Wind Speed Gust Speed Precip Events Conditions
12:14 AM 62.6 °F 51.8 °F 68% 29.76 in 1.2 mi WSW 9.2 mph - N/A   Haze
12:34 AM 62.6 °F 51.8 °F 68% 29.76 in 0.8 mi WSW 9.2 mph - N/A   Haze
12:53 AM 60.8 °F 51.8 °F 72% 29.75 in 1.8 mi WSW 8.1 mph - N/A   Haze
1:14 AM 60.8 °F 50.0 °F 68% 29.75 in 1.8 mi WSW 10.4 mph - N/A   Haze
1:34 AM 60.8 °F 51.8 °F 72% 29.75 in 1.5 mi WSW 11.5 mph - N/A   Haze
1:53 AM 60.8 °F 51.8 °F 72% 29.75 in 2.0 mi WSW 9.2 mph - N/A   Haze
2:14 AM 60.8 °F 51.8 °F 72% 29.75 in 10.0 mi WSW 8.1 mph - N/A   Clear
2:34 AM 60.8 °F 51.8 °F 72% 29.75 in 10.0 mi West 8.1 mph - N/A   Scattered Clouds
2:53 AM 60.8 °F 51.8 °F 72% 29.75 in 10.0 mi West 8.1 mph - N/A   Clear
3:14 AM 60.8 °F 51.8 °F 72% 29.76 in 10.0 mi West 4.6 mph - N/A   Clear
3:34 AM 59.0 °F 51.8 °F 77% 29.76 in 7.0 mi West 5.8 mph - N/A   Mostly Cloudy
3:53 AM 59.0 °F 51.8 °F 77% 29.75 in 10.0 mi WSW 12.7 mph - N/A   Overcast
4:14 AM 60.8 °F 51.8 °F 72% 29.75 in 10.0 mi West 10.4 mph - N/A   Overcast
4:34 AM 59.0 °F 51.8 °F 77% 29.76 in 10.0 mi West 9.2 mph - N/A   Mostly Cloudy
4:53 AM 60.8 °F 51.8 °F 72% 29.75 in 10.0 mi WSW 10.4 mph - N/A   Mostly Cloudy
5:14 AM 60.8 °F 51.8 °F 72% 29.76 in 10.0 mi West 8.1 mph - N/A   Scattered Clouds
5:34 AM 59.0 °F 51.8 °F 77% 29.75 in 10.0 mi WSW 11.5 mph - N/A   Scattered Clouds
5:53 AM 59.0 °F 51.8 °F 77% 29.76 in 10.0 mi WSW 12.7 mph - N/A   Scattered Clouds
6:13 AM 59.0 °F 51.8 °F 77% 29.77 in 10.0 mi WSW 10.4 mph - N/A   Mostly Cloudy
6:34 AM 59.0 °F 51.8 °F 77% 29.77 in 10.0 mi West 11.5 mph - N/A   Overcast
6:53 AM 59.0 °F 51.8 °F 77% 29.77 in 10.0 mi WSW 11.5 mph - N/A   Overcast
7:13 AM 60.8 °F 51.8 °F 72% 29.77 in 10.0 mi WSW 10.4 mph - N/A   Overcast
7:34 AM 60.8 °F 51.8 °F 72% 29.77 in 10.0 mi WSW 11.5 mph - N/A   Scattered Clouds
7:53 AM 60.8 °F 51.8 °F 72% 29.76 in 5.0 mi WSW 10.4 mph - N/A   Haze
8:13 AM 62.6 °F 53.6 °F 72% 29.76 in 5.0 mi WSW 8.1 mph - N/A   Haze
8:34 AM 64.4 °F 53.6 °F 68% 29.76 in 5.0 mi WSW 8.1 mph - N/A   Haze
8:53 AM 64.4 °F 53.6 °F 68% 29.77 in 10.0 mi SW 8.1 mph - N/A   Scattered Clouds
9:13 AM 66.2 °F 53.6 °F 64% 29.77 in 10.0 mi WSW 9.2 mph - N/A   Clear
9:34 AM 66.2 °F 53.6 °F 64% 29.77 in 7.0 mi SW 5.8 mph - N/A   Clear
9:53 AM 69.8 °F 51.8 °F 53% 29.77 in 10.0 mi WSW 9.2 mph - N/A   Clear
10:13 AM 69.8 °F 48.2 °F 46% 29.76 in 7.0 mi WSW 12.7 mph - N/A   Scattered Clouds
10:34 AM 69.8 °F 50.0 °F 49% 29.76 in 5.0 mi WSW 11.5 mph - N/A   Haze
10:53 AM 69.8 °F 48.2 °F 46% 29.76 in 4.0 mi WSW 16.1 mph - N/A   Haze
11:13 AM 71.6 °F 48.2 °F 43% 29.76 in 0.8 mi West 9.2 mph 17.3 mph N/A   Haze
11:34 AM 71.6 °F 46.4 °F 41% 29.76 in 10.0 mi West 18.4 mph 24.2 mph N/A   Scattered Clouds
11:53 AM 71.6 °F 48.2 °F 43% 29.77 in 10.0 mi West 18.4 mph 25.3 mph N/A   Scattered Clouds
12:13 PM 71.6 °F 48.2 °F 43% 29.76 in 10.0 mi West 15.0 mph 24.2 mph N/A   Mostly Cloudy
12:33 PM 71.6 °F 48.2 °F 43% 29.76 in 10.0 mi WSW 12.7 mph 20.7 mph N/A   Scattered Clouds
12:53 PM 73.4 °F 46.4 °F 38% 29.75 in 10.0 mi West 12.7 mph 21.9 mph N/A   Scattered Clouds
1:14 PM 73.4 °F 46.4 °F 38% 29.75 in 10.0 mi WSW 10.4 mph 15.0 mph N/A   Scattered Clouds
1:33 PM 71.6 °F 46.4 °F 41% 29.75 in 10.0 mi West 19.6 mph 23.0 mph N/A   Mostly Cloudy
1:53 PM 71.6 °F 48.2 °F 43% 29.76 in 10.0 mi West 13.8 mph - N/A   Mostly Cloudy
2:14 PM 73.4 °F 46.4 °F 38% 29.75 in 10.0 mi West 11.5 mph 20.7 mph N/A   Mostly Cloudy
2:33 PM 69.8 °F 51.8 °F 53% 29.76 in 10.0 mi NW 12.7 mph - N/A   Mostly Cloudy
2:53 PM 69.8 °F 51.8 °F 53% 29.76 in 10.0 mi NW 10.4 mph - N/A   Overcast
3:14 PM 71.6 °F 50.0 °F 46% 29.76 in 10.0 mi NW 12.7 mph - N/A   Mostly Cloudy
3:33 PM 71.6 °F 51.8 °F 50% 29.76 in 10.0 mi NW 11.5 mph - N/A   Mostly Cloudy
3:53 PM 71.6 °F 50.0 °F 46% 29.76 in 10.0 mi WNW 18.4 mph - N/A   Mostly Cloudy
4:14 PM 69.8 °F 48.2 °F 46% 29.77 in 10.0 mi WNW 13.8 mph - N/A   Mostly Cloudy
4:33 PM 71.6 °F 50.0 °F 46% 29.77 in 10.0 mi WNW 20.7 mph 24.2 mph N/A   Overcast
4:53 PM 69.8 °F 50.0 °F 49% 29.78 in 10.0 mi WNW 16.1 mph - N/A   Mostly Cloudy
5:14 PM 69.8 °F 51.8 °F 53% 29.78 in 10.0 mi WNW 15.0 mph - N/A   Mostly Cloudy
5:33 PM 69.8 °F 51.8 °F 53% 29.78 in 10.0 mi WNW 12.7 mph - N/A   Mostly Cloudy
5:53 PM 69.8 °F 53.6 °F 56% 29.79 in 10.0 mi NW 8.1 mph - N/A   Overcast
6:14 PM 69.8 °F 53.6 °F 56% 29.79 in 10.0 mi North 8.1 mph - N/A   Mostly Cloudy
6:33 PM 69.8 °F 53.6 °F 56% 29.79 in 10.0 mi North 4.6 mph - N/A   Mostly Cloudy
6:53 PM 68.0 °F 53.6 °F 60% 29.79 in 10.0 mi North 5.8 mph - N/A   Overcast
7:14 PM 68.0 °F 53.6 °F 60% 29.80 in 10.0 mi North 9.2 mph - N/A   Overcast
7:33 PM 68.0 °F 51.8 °F 56% 29.80 in 10.0 mi North 9.2 mph - N/A   Overcast
7:53 PM 68.0 °F 53.6 °F 60% 29.80 in 10.0 mi North 8.1 mph - N/A   Overcast
8:14 PM 68.0 °F 51.8 °F 56% 29.80 in 10.0 mi North 8.1 mph - N/A   Overcast
8:33 PM 66.2 °F 57.2 °F 73% 29.81 in 10.0 mi NNE 8.1 mph - N/A   Overcast
8:53 PM 64.4 °F 57.2 °F 77% 29.81 in 10.0 mi ENE 4.6 mph - N/A   Light Drizzle
9:14 PM 64.4 °F 57.2 °F 77% 29.82 in 10.0 mi NNE 6.9 mph - N/A   Overcast
9:33 PM 64.4 °F 57.2 °F 77% 29.82 in 10.0 mi ENE 4.6 mph - N/A   Overcast
9:53 PM 64.4 °F 57.2 °F 77% 29.83 in 10.0 mi East 3.5 mph - N/A   Overcast
10:14 PM 64.4 °F 55.4 °F 73% 29.83 in 10.0 mi ENE 5.8 mph - N/A   Overcast
10:33 PM 64.4 °F 55.4 °F 73% 29.83 in 10.0 mi ENE 5.8 mph - N/A   Overcast
10:53 PM 64.4 °F 55.4 °F 73% 29.84 in 10.0 mi ENE 5.8 mph - N/A   Overcast
11:13 PM 62.6 °F 55.4 °F 77% 29.84 in 10.0 mi ENE 4.6 mph - N/A   Overcast
11:33 PM 62.6 °F 55.4 °F 77% 29.85 in 10.0 mi ENE 6.9 mph - N/A   Overcast
11:54 PM 62.6 °F 57.2 °F 82% 29.85 in 10.0 mi NE 8.1 mph - N/A   Overcast